createdAt,value
2019-05-19T00:01:01.120Z,6.60
2019-05-19T00:03:28.767Z,5.40
2019-05-19T00:05:56.688Z,6.43
2019-05-19T00:08:24.305Z,6.20
2019-05-19T00:10:51.954Z,4.83
2019-05-19T00:13:21.579Z,5.67
2019-05-19T00:15:50.318Z,6.80
2019-05-19T00:18:17.933Z,6.33
2019-05-19T00:20:45.638Z,5.97
2019-05-19T00:23:13.277Z,5.90
2019-05-19T00:25:40.954Z,6.07
2019-05-19T00:28:08.677Z,6.97
2019-05-19T00:30:36.601Z,7.13
2019-05-19T00:33:04.349Z,10.43
2019-05-19T00:35:32.173Z,7.43
2019-05-19T00:37:59.877Z,7.57
2019-05-19T00:40:27.533Z,8.67
2019-05-19T00:42:55.174Z,6.30
2019-05-19T00:45:22.854Z,6.03
2019-05-19T00:47:50.547Z,7.17
2019-05-19T00:50:18.182Z,8.00
2019-05-19T00:52:45.851Z,5.93
2019-05-19T00:55:13.468Z,4.90
2019-05-19T00:57:41.211Z,5.10
2019-05-19T01:00:08.865Z,5.03
2019-05-19T01:02:36.651Z,5.23
2019-05-19T01:05:04.649Z,10.83
2019-05-19T01:07:33.029Z,5.27
2019-05-19T01:10:00.654Z,6.10
2019-05-19T01:12:28.325Z,5.30
2019-05-19T01:14:55.965Z,5.00
2019-05-19T01:17:23.656Z,6.40
2019-05-19T01:19:55.874Z,6.07
2019-05-19T01:22:21.008Z,5.23
2019-05-19T01:24:49.041Z,6.60
2019-05-19T01:27:16.784Z,7.30
2019-05-19T01:29:44.937Z,5.90
2019-05-19T01:32:12.595Z,5.87
2019-05-19T01:34:40.221Z,5.43
2019-05-19T01:37:07.885Z,6.80
2019-05-19T01:39:35.555Z,5.67
2019-05-19T01:42:03.209Z,7.93
2019-05-19T01:44:30.845Z,12.83
2019-05-19T01:46:58.632Z,5.90
2019-05-19T01:49:26.316Z,5.90
2019-05-19T01:51:53.950Z,7.07
2019-05-19T01:54:21.611Z,8.60
2019-05-19T01:56:49.253Z,5.20
2019-05-19T01:59:16.902Z,5.93
2019-05-19T02:01:44.545Z,5.40
2019-05-19T02:04:12.204Z,7.37
2019-05-19T02:06:39.942Z,5.77
2019-05-19T02:09:07.596Z,6.17
2019-05-19T02:11:35.369Z,6.13
2019-05-19T02:14:03.285Z,6.00
2019-05-19T02:16:30.927Z,6.17
2019-05-19T02:18:58.581Z,6.17
2019-05-19T02:21:26.228Z,5.63
2019-05-19T02:23:53.973Z,6.07
2019-05-19T02:26:21.605Z,5.90
2019-05-19T02:28:49.264Z,6.20
2019-05-19T02:31:17.007Z,6.40
2019-05-19T02:33:44.619Z,7.27
2019-05-19T02:36:12.311Z,7.93
2019-05-19T02:38:39.989Z,8.83
2019-05-19T02:41:11.039Z,8.60
2019-05-19T02:43:39.084Z,7.90
2019-05-19T02:46:06.767Z,7.70
2019-05-19T02:48:35.349Z,8.03
2019-05-19T02:51:04.317Z,7.57
2019-05-19T02:53:32.431Z,9.07
2019-05-19T02:56:01.780Z,7.17
2019-05-19T02:58:30.350Z,7.83
2019-05-19T03:00:58.024Z,7.13
2019-05-19T03:03:25.874Z,7.77
2019-05-19T03:05:53.654Z,7.73
2019-05-19T03:08:21.359Z,8.10
2019-05-19T03:10:49.138Z,7.50
2019-05-19T03:13:16.749Z,7.07
2019-05-19T03:15:44.391Z,7.77
2019-05-19T03:18:12.013Z,8.83
2019-05-19T03:20:39.757Z,7.67
2019-05-19T03:23:07.371Z,12.60
2019-05-19T03:25:35.027Z,8.27
2019-05-19T03:28:02.640Z,8.67
2019-05-19T03:30:48.516Z,8.57
2019-05-19T03:33:19.013Z,7.73
2019-05-19T03:35:46.831Z,8.87
2019-05-19T03:38:14.563Z,10.07
2019-05-19T03:40:42.281Z,10.03
2019-05-19T03:43:09.905Z,9.27
2019-05-19T03:45:37.559Z,10.10
2019-05-19T03:48:05.381Z,12.50
2019-05-19T03:50:33.002Z,12.73
2019-05-19T03:53:00.660Z,12.60
2019-05-19T03:55:28.364Z,12.47
2019-05-19T03:57:56.021Z,12.23
2019-05-19T04:00:24.653Z,12.67
2019-05-19T04:02:52.309Z,11.90
2019-05-19T04:05:19.940Z,12.43
2019-05-19T04:07:47.589Z,13.60
2019-05-19T04:10:15.515Z,12.63
2019-05-19T04:12:44.265Z,12.33
2019-05-19T04:15:12.114Z,12.47
2019-05-19T04:17:41.139Z,13.20
2019-05-19T04:20:09.005Z,13.07
2019-05-19T04:22:36.759Z,13.03
2019-05-19T04:25:05.122Z,12.60
2019-05-19T04:27:32.775Z,13.53
2019-05-19T04:30:00.461Z,13.30
2019-05-19T04:32:28.077Z,13.60
2019-05-19T04:34:55.722Z,13.73
2019-05-19T04:37:23.419Z,13.37
2019-05-19T04:39:51.063Z,12.97
2019-05-19T04:42:18.712Z,12.83
2019-05-19T04:44:46.371Z,15.17
2019-05-19T04:47:14.060Z,13.63
2019-05-19T04:49:41.694Z,12.63
2019-05-19T04:52:09.369Z,12.77
2019-05-19T04:54:37.056Z,15.03
2019-05-19T04:57:06.294Z,12.70
2019-05-19T04:59:33.953Z,13.03
2019-05-19T05:02:01.613Z,12.77
2019-05-19T05:04:29.733Z,14.07
2019-05-19T05:06:57.648Z,13.77
2019-05-19T05:09:25.346Z,13.47
2019-05-19T05:11:53.526Z,13.77
2019-05-19T05:14:21.257Z,14.97
2019-05-19T05:16:48.953Z,14.33
2019-05-19T05:19:16.640Z,14.53
2019-05-19T05:21:44.295Z,16.77
2019-05-19T05:24:12.075Z,16.47
2019-05-19T05:26:39.940Z,17.40
2019-05-19T05:29:08.913Z,17.07
2019-05-19T05:31:36.868Z,17.07
2019-05-19T05:34:04.513Z,16.40
2019-05-19T05:36:33.249Z,18.03
2019-05-19T05:39:00.938Z,17.10
2019-05-19T05:41:28.581Z,18.53
2019-05-19T05:43:56.224Z,17.93
2019-05-19T05:46:23.864Z,17.30
2019-05-19T05:48:51.523Z,18.37
2019-05-19T05:51:19.205Z,18.60
2019-05-19T05:53:46.849Z,18.60
2019-05-19T05:56:14.509Z,19.07
2019-05-19T05:58:42.244Z,20.37
2019-05-19T06:01:09.913Z,19.00
2019-05-19T06:03:37.776Z,18.83
2019-05-19T06:06:05.444Z,18.57
2019-05-19T06:08:33.074Z,19.07
2019-05-19T06:11:00.769Z,18.70
2019-05-19T06:13:28.397Z,20.00
2019-05-19T06:15:56.075Z,19.27
2019-05-19T06:18:23.710Z,18.53
2019-05-19T06:20:51.461Z,19.00
2019-05-19T06:23:19.125Z,19.73
2019-05-19T06:25:46.825Z,19.87
2019-05-19T06:28:14.506Z,18.70
2019-05-19T06:30:42.368Z,18.00
2019-05-19T06:33:10.156Z,18.13
2019-05-19T06:35:37.849Z,18.17
2019-05-19T06:38:05.520Z,17.10
2019-05-19T06:40:33.221Z,17.70
2019-05-19T06:43:01.010Z,17.70
2019-05-19T06:45:28.707Z,16.20
2019-05-19T06:47:56.450Z,16.73
2019-05-19T06:50:24.097Z,16.83
2019-05-19T06:52:51.781Z,15.50
2019-05-19T06:55:19.526Z,16.90
2019-05-19T06:57:47.218Z,15.67
2019-05-19T07:00:15.277Z,16.37
2019-05-19T07:02:43.127Z,16.27
2019-05-19T07:05:11.018Z,17.00
2019-05-19T07:07:38.805Z,16.47
2019-05-19T07:10:06.692Z,18.10
2019-05-19T07:12:34.362Z,18.10
2019-05-19T07:15:03.133Z,18.27
2019-05-19T07:17:30.871Z,17.97
2019-05-19T07:19:58.537Z,19.73
2019-05-19T07:22:26.318Z,18.43
2019-05-19T07:24:53.970Z,17.60
2019-05-19T07:27:21.626Z,17.90
2019-05-19T07:29:49.367Z,18.93
2019-05-19T07:32:16.995Z,18.57
2019-05-19T07:34:44.650Z,19.13
2019-05-19T07:37:12.289Z,19.03
2019-05-19T07:39:39.950Z,18.73
2019-05-19T07:42:07.608Z,19.53
2019-05-19T07:44:35.331Z,18.23
2019-05-19T07:47:03.050Z,20.87
2019-05-19T07:49:30.770Z,19.77
2019-05-19T07:51:58.545Z,20.10
2019-05-19T07:54:26.234Z,18.40
2019-05-19T07:56:53.883Z,21.30
2019-05-19T07:59:21.553Z,20.30
2019-05-19T08:01:49.298Z,21.60
2019-05-19T08:04:16.949Z,20.50
2019-05-19T08:06:44.700Z,19.87
2019-05-19T08:09:12.390Z,22.73
2019-05-19T08:11:40.046Z,20.40
2019-05-19T08:14:07.780Z,19.93
2019-05-19T08:16:35.500Z,20.30
2019-05-19T08:19:03.138Z,20.57
2019-05-19T08:21:31.845Z,21.33
2019-05-19T08:24:01.054Z,20.63
2019-05-19T08:26:29.007Z,20.47
2019-05-19T08:28:56.757Z,19.17
2019-05-19T08:31:25.350Z,20.30
2019-05-19T08:33:53.117Z,22.43
2019-05-19T08:36:20.741Z,21.50
2019-05-19T08:38:48.441Z,19.63
2019-05-19T08:41:16.131Z,21.07
2019-05-19T08:43:43.849Z,21.57
2019-05-19T08:46:11.640Z,19.17
2019-05-19T08:48:39.361Z,21.40
2019-05-19T08:51:07.082Z,18.13
2019-05-19T08:53:34.793Z,18.43
2019-05-19T08:56:02.521Z,18.67
2019-05-19T08:58:30.257Z,16.40
2019-05-19T09:00:58.070Z,17.23
2019-05-19T09:03:25.787Z,16.47
2019-05-19T09:05:53.461Z,17.30
2019-05-19T09:08:21.181Z,14.63
2019-05-19T09:10:48.941Z,14.07
2019-05-19T09:13:16.599Z,12.13
2019-05-19T09:15:44.330Z,11.57
2019-05-19T09:18:12.038Z,11.80
2019-05-19T09:20:39.696Z,13.13
2019-05-19T09:23:07.487Z,11.60
2019-05-19T09:25:35.204Z,11.43
2019-05-19T09:28:02.885Z,12.00
2019-05-19T09:30:30.572Z,12.30
2019-05-19T09:32:58.249Z,12.53
2019-05-19T09:35:26.003Z,9.77
2019-05-19T09:37:53.800Z,6.00
2019-05-19T09:40:21.472Z,7.03
2019-05-19T09:42:49.164Z,4.37
2019-05-19T09:45:16.821Z,5.47
2019-05-19T09:47:44.497Z,6.03
2019-05-19T09:50:13.686Z,7.33
2019-05-19T09:52:41.428Z,7.03
2019-05-19T09:55:09.311Z,7.03
2019-05-19T09:57:37.983Z,7.03
2019-05-19T10:00:06.270Z,6.13
2019-05-19T10:02:34.217Z,5.23
2019-05-19T10:05:01.901Z,4.73
2019-05-19T10:07:29.661Z,5.20
2019-05-19T10:09:58.902Z,5.40
2019-05-19T10:12:27.958Z,5.17
2019-05-19T10:14:55.722Z,5.33
2019-05-19T10:17:23.389Z,5.37
2019-05-19T10:19:51.249Z,5.80
2019-05-19T10:22:19.102Z,5.47
2019-05-19T10:25:03.825Z,5.90
2019-05-19T10:27:16.334Z,5.40
2019-05-19T10:29:44.014Z,5.33
2019-05-19T10:32:11.794Z,6.20
2019-05-19T10:34:39.441Z,5.00
2019-05-19T10:37:07.157Z,5.70
2019-05-19T10:39:34.972Z,5.40
2019-05-19T10:42:03.043Z,5.37
2019-05-19T10:44:30.788Z,5.83
2019-05-19T10:46:58.655Z,5.40
2019-05-19T10:49:26.300Z,5.63
2019-05-19T10:51:53.933Z,5.00
2019-05-19T10:54:21.630Z,4.27
2019-05-19T10:56:49.368Z,4.73
2019-05-19T10:59:17.011Z,4.20
2019-05-19T11:01:44.798Z,5.27
2019-05-19T11:04:12.542Z,4.37
2019-05-19T11:06:40.172Z,4.37
2019-05-19T11:09:07.937Z,4.13
2019-05-19T11:11:35.783Z,4.20
2019-05-19T11:14:03.463Z,4.23
2019-05-19T11:16:31.090Z,5.10
2019-05-19T11:18:58.796Z,4.27
2019-05-19T11:21:26.430Z,5.17
2019-05-19T11:23:54.106Z,6.00
2019-05-19T11:26:22.093Z,4.50
2019-05-19T11:28:50.269Z,4.13
2019-05-19T11:31:18.057Z,3.93
2019-05-19T11:33:45.708Z,3.87
2019-05-19T11:36:13.357Z,3.77
2019-05-19T11:38:41.001Z,4.50
2019-05-19T11:41:08.637Z,3.93
2019-05-19T11:43:36.393Z,6.17
2019-05-19T11:46:04.133Z,4.20
2019-05-19T11:48:31.877Z,3.70
2019-05-19T11:50:59.573Z,4.03
2019-05-19T11:53:27.206Z,3.57
2019-05-19T11:56:06.301Z,3.97
2019-05-19T11:58:24.449Z,3.30
2019-05-19T12:00:52.143Z,3.33
2019-05-19T12:03:19.897Z,4.70
2019-05-19T12:05:47.614Z,3.60
2019-05-19T12:08:15.261Z,2.77
2019-05-19T12:10:42.911Z,3.20
2019-05-19T12:13:10.598Z,4.70
2019-05-19T12:15:38.240Z,3.43
2019-05-19T12:18:05.901Z,2.90
2019-05-19T12:20:33.642Z,3.30
2019-05-19T12:23:01.262Z,3.20
2019-05-19T12:25:28.927Z,3.23
2019-05-19T12:27:56.708Z,3.63
2019-05-19T12:30:24.374Z,4.30
2019-05-19T12:32:52.264Z,2.87
2019-05-19T12:35:20.049Z,2.97
2019-05-19T12:37:47.702Z,4.30
2019-05-19T12:40:15.612Z,4.30
2019-05-19T12:42:43.365Z,3.60
2019-05-19T12:45:11.946Z,3.10
2019-05-19T12:47:39.661Z,3.27
2019-05-19T12:50:09.321Z,3.27
2019-05-19T12:52:37.019Z,3.63
2019-05-19T12:55:05.529Z,2.83
2019-05-19T12:57:33.430Z,3.90
2019-05-19T13:00:01.070Z,2.60
2019-05-19T13:02:28.849Z,3.20
2019-05-19T13:05:05.137Z,3.23
2019-05-19T13:07:26.218Z,2.80
2019-05-19T13:09:54.407Z,3.93
2019-05-19T13:12:22.122Z,3.20
2019-05-19T13:14:49.916Z,3.87
2019-05-19T13:17:17.545Z,3.63
2019-05-19T13:19:45.422Z,2.50
2019-05-19T13:22:13.259Z,3.23
2019-05-19T13:24:40.939Z,2.80
2019-05-19T13:27:08.810Z,3.83
2019-05-19T13:29:36.464Z,2.30
2019-05-19T13:32:04.240Z,3.30
2019-05-19T13:34:31.889Z,2.60
2019-05-19T13:36:59.599Z,2.90
2019-05-19T13:39:27.253Z,2.60
2019-05-19T13:41:55.014Z,3.70
2019-05-19T13:44:22.700Z,2.90
2019-05-19T13:46:50.530Z,2.70
2019-05-19T13:49:18.351Z,2.60
2019-05-19T13:51:46.177Z,4.20
2019-05-19T13:54:13.988Z,3.20
2019-05-19T13:56:41.669Z,2.50
2019-05-19T13:59:09.346Z,2.80
2019-05-19T14:01:38.696Z,2.10
2019-05-19T14:04:06.652Z,2.30
2019-05-19T14:06:34.312Z,2.27
2019-05-19T14:09:01.978Z,2.33
2019-05-19T14:11:31.614Z,3.67
2019-05-19T14:13:59.263Z,4.33
2019-05-19T14:16:26.908Z,2.47
2019-05-19T14:18:54.595Z,2.83
2019-05-19T14:21:22.286Z,2.90
2019-05-19T14:23:49.980Z,3.40
2019-05-19T14:26:17.657Z,3.73
2019-05-19T14:28:45.489Z,3.33
2019-05-19T14:31:13.144Z,3.73
2019-05-19T14:33:40.799Z,3.03
2019-05-19T14:36:08.464Z,2.93
2019-05-19T14:38:36.210Z,2.60
2019-05-19T14:41:03.906Z,3.23
2019-05-19T14:43:31.764Z,2.77
2019-05-19T14:45:59.440Z,2.40
2019-05-19T14:48:27.228Z,2.73
2019-05-19T14:50:54.957Z,2.20
2019-05-19T14:53:22.641Z,2.63
2019-05-19T14:55:50.306Z,2.77
2019-05-19T14:58:17.977Z,2.67
2019-05-19T15:00:46.753Z,2.30
2019-05-19T15:03:14.410Z,2.60
2019-05-19T15:05:42.252Z,4.90
2019-05-19T15:08:09.946Z,2.60
2019-05-19T15:10:37.650Z,3.53
2019-05-19T15:13:05.285Z,3.37
2019-05-19T15:15:32.959Z,2.60
2019-05-19T15:18:00.661Z,2.97
2019-05-19T15:20:28.377Z,3.63
2019-05-19T15:22:56.093Z,4.00
2019-05-19T15:25:23.796Z,3.00
2019-05-19T15:27:59.746Z,5.63
2019-05-19T15:30:21.042Z,2.07
2019-05-19T15:32:48.739Z,2.40
2019-05-19T15:35:16.602Z,2.47
2019-05-19T15:37:44.969Z,2.47
2019-05-19T15:40:13.515Z,2.50
2019-05-19T15:42:41.234Z,3.80
2019-05-19T15:45:09.002Z,4.17
2019-05-19T15:47:36.735Z,2.63
2019-05-19T15:50:04.947Z,2.50
2019-05-19T15:52:33.673Z,3.43
2019-05-19T15:55:01.375Z,5.87
2019-05-19T15:57:29.053Z,5.57
2019-05-19T15:59:56.718Z,4.73
2019-05-19T16:02:24.514Z,2.87
2019-05-19T16:04:52.241Z,2.03
2019-05-19T16:07:19.930Z,5.03
2019-05-19T16:09:47.570Z,5.03
2019-05-19T16:12:15.424Z,4.50
2019-05-19T16:14:43.101Z,2.60
2019-05-19T16:17:10.793Z,2.33
2019-05-19T16:19:38.480Z,2.83
2019-05-19T16:22:06.230Z,2.33
2019-05-19T16:24:33.886Z,3.90
2019-05-19T16:27:01.582Z,3.10
2019-05-19T16:29:29.495Z,2.63
2019-05-19T16:31:57.256Z,2.60
2019-05-19T16:34:25.138Z,2.50
2019-05-19T16:36:52.818Z,3.97
2019-05-19T16:39:20.626Z,2.87
2019-05-19T16:41:48.525Z,3.03
2019-05-19T16:44:16.299Z,4.10
2019-05-19T16:46:44.229Z,3.23
2019-05-19T16:49:12.010Z,3.10
2019-05-19T16:51:39.881Z,3.67
2019-05-19T16:54:11.828Z,3.40
2019-05-19T16:56:39.580Z,4.87
2019-05-19T16:59:07.445Z,3.03
2019-05-19T17:01:35.145Z,2.77
2019-05-19T17:04:02.891Z,2.77
2019-05-19T17:06:30.736Z,2.20
2019-05-19T17:09:00.333Z,2.50
2019-05-19T17:11:28.046Z,3.97
2019-05-19T17:13:55.883Z,2.80
2019-05-19T17:16:23.577Z,2.70
2019-05-19T17:18:51.277Z,2.90
2019-05-19T17:21:19.999Z,6.13
2019-05-19T17:23:47.656Z,4.00
2019-05-19T17:26:15.449Z,2.50
2019-05-19T17:28:43.127Z,3.03
2019-05-19T17:31:10.838Z,2.90
2019-05-19T17:33:38.566Z,3.20
2019-05-19T17:36:06.294Z,3.17
2019-05-19T17:38:34.112Z,3.27
2019-05-19T17:41:01.785Z,4.13
2019-05-19T17:43:29.492Z,4.43
2019-05-19T17:45:57.256Z,2.90
2019-05-19T17:48:27.043Z,2.90
2019-05-19T17:50:55.938Z,4.43
2019-05-19T17:53:23.730Z,3.13
2019-05-19T17:55:53.172Z,4.43
2019-05-19T17:58:21.312Z,3.07
2019-05-19T18:00:48.992Z,2.83
2019-05-19T18:03:16.767Z,7.30
2019-05-19T18:05:44.647Z,4.03
2019-05-19T18:08:12.605Z,3.43
2019-05-19T18:10:40.330Z,5.27
2019-05-19T18:13:08.172Z,2.67
2019-05-19T18:15:36.220Z,3.20
2019-05-19T18:18:03.870Z,3.47
2019-05-19T18:20:31.696Z,4.13
2019-05-19T18:22:59.385Z,3.00
2019-05-19T18:25:27.441Z,5.53
2019-05-19T18:27:55.241Z,4.43
2019-05-19T18:30:22.976Z,3.27
2019-05-19T18:32:51.738Z,4.47
2019-05-19T18:35:19.740Z,5.63
2019-05-19T18:37:47.617Z,3.10
2019-05-19T18:40:15.663Z,3.80
2019-05-19T18:42:43.381Z,3.53
2019-05-19T18:45:11.076Z,4.03
2019-05-19T18:47:38.858Z,3.67
2019-05-19T18:50:06.915Z,8.37
2019-05-19T18:52:34.704Z,3.77
2019-05-19T18:55:02.479Z,4.20
2019-05-19T18:57:30.426Z,3.27
2019-05-19T18:59:58.144Z,3.47
2019-05-19T19:02:25.866Z,3.73
2019-05-19T19:04:53.561Z,6.60
2019-05-19T19:07:24.246Z,4.03
2019-05-19T19:09:51.986Z,4.60
2019-05-19T19:12:19.663Z,3.70
2019-05-19T19:14:47.420Z,4.23
2019-05-19T19:17:15.228Z,3.63
2019-05-19T19:19:42.916Z,3.93
2019-05-19T19:22:10.609Z,3.33
2019-05-19T19:24:38.727Z,4.30
2019-05-19T19:27:06.468Z,4.10
2019-05-19T19:29:34.195Z,3.93
2019-05-19T19:32:01.982Z,5.57
2019-05-19T19:34:29.646Z,5.33
2019-05-19T19:36:57.289Z,3.87
2019-05-19T19:39:25.014Z,4.13
2019-05-19T19:41:52.740Z,6.40
2019-05-19T19:44:20.409Z,5.33
2019-05-19T19:46:53.673Z,4.07
2019-05-19T19:49:20.491Z,5.20
2019-05-19T19:51:48.179Z,6.10
2019-05-19T19:54:15.857Z,4.80
2019-05-19T19:56:43.522Z,4.10
2019-05-19T19:59:11.238Z,5.23
2019-05-19T20:01:38.912Z,3.97
2019-05-19T20:04:07.681Z,4.37
2019-05-19T20:06:35.349Z,4.47
2019-05-19T20:09:05.932Z,4.20
2019-05-19T20:11:34.763Z,4.17
2019-05-19T20:14:02.471Z,4.80
2019-05-19T20:16:30.307Z,4.37
2019-05-19T20:18:58.026Z,4.43
2019-05-19T20:21:25.840Z,3.67
2019-05-19T20:23:54.621Z,3.87
2019-05-19T20:26:22.365Z,4.07
2019-05-19T20:28:50.263Z,4.07
2019-05-19T20:31:17.947Z,4.07
2019-05-19T20:33:45.647Z,3.83
2019-05-19T20:36:13.421Z,4.23
2019-05-19T20:38:41.118Z,4.17
2019-05-19T20:41:08.872Z,3.83
2019-05-19T20:43:36.716Z,5.07
2019-05-19T20:46:04.543Z,4.97
2019-05-19T20:48:32.898Z,3.80
2019-05-19T20:51:00.828Z,5.17
2019-05-19T20:53:28.577Z,3.83
2019-05-19T20:55:56.431Z,4.10
2019-05-19T20:58:24.175Z,4.23
2019-05-19T21:00:52.056Z,3.60
2019-05-19T21:03:19.905Z,4.37
2019-05-19T21:05:47.583Z,3.53
2019-05-19T21:08:15.244Z,3.90
2019-05-19T21:10:42.932Z,5.87
2019-05-19T21:13:10.611Z,3.43
2019-05-19T21:15:38.326Z,4.17
2019-05-19T21:18:06.127Z,3.20
2019-05-19T21:20:33.811Z,3.40
2019-05-19T21:23:01.564Z,3.47
2019-05-19T21:25:29.225Z,4.20
2019-05-19T21:27:56.920Z,4.43
2019-05-19T21:30:24.655Z,6.23
2019-05-19T21:32:52.452Z,5.07
2019-05-19T21:35:20.189Z,3.13
2019-05-19T21:37:47.898Z,3.67
2019-05-19T21:40:15.639Z,4.43
2019-05-19T21:42:44.323Z,3.07
2019-05-19T21:45:12.204Z,3.20
2019-05-19T21:47:40.031Z,3.43
2019-05-19T21:50:08.489Z,6.57
2019-05-19T21:52:36.247Z,4.57
2019-05-19T21:55:04.824Z,3.33
2019-05-19T21:57:32.727Z,6.63
2019-05-19T22:00:00.496Z,3.83
2019-05-19T22:02:28.317Z,5.17
2019-05-19T22:04:56.485Z,3.83
2019-05-19T22:07:32.257Z,3.30
2019-05-19T22:09:59.962Z,3.00
2019-05-19T22:12:27.761Z,4.53
2019-05-19T22:14:55.575Z,4.63
2019-05-19T22:17:23.331Z,3.60
2019-05-19T22:19:52.036Z,3.83
2019-05-19T22:22:19.741Z,3.03
2019-05-19T22:24:47.449Z,4.23
2019-05-19T22:27:15.159Z,4.17
2019-05-19T22:29:42.857Z,3.70
2019-05-19T22:32:10.571Z,3.20
2019-05-19T22:34:38.289Z,3.77
2019-05-19T22:37:07.099Z,3.47
2019-05-19T22:39:34.853Z,4.57
2019-05-19T22:42:02.644Z,3.87
2019-05-19T22:44:30.435Z,3.00
2019-05-19T22:46:58.137Z,4.00
2019-05-19T22:49:25.830Z,3.60
2019-05-19T22:51:53.522Z,3.43
2019-05-19T22:54:21.251Z,6.97
2019-05-19T22:56:48.978Z,5.70
2019-05-19T22:59:19.593Z,3.97
2019-05-19T23:01:51.788Z,3.70
2019-05-19T23:04:15.854Z,4.77
2019-05-19T23:06:43.546Z,3.90
2019-05-19T23:09:11.328Z,5.00
2019-05-19T23:11:38.994Z,3.83
2019-05-19T23:14:07.848Z,6.03
2019-05-19T23:16:35.522Z,3.40
2019-05-19T23:19:03.237Z,3.53
2019-05-19T23:21:30.918Z,3.13
2019-05-19T23:23:58.658Z,4.00
2019-05-19T23:26:26.342Z,7.77
2019-05-19T23:28:54.040Z,4.73
2019-05-19T23:31:22.546Z,3.97
2019-05-19T23:33:51.299Z,4.53
2019-05-19T23:36:19.198Z,3.20
2019-05-19T23:38:46.882Z,3.70
2019-05-19T23:41:15.595Z,4.90
2019-05-19T23:43:43.364Z,4.53
2019-05-19T23:46:11.152Z,5.40
2019-05-19T23:48:39.004Z,3.23
2019-05-19T23:51:06.678Z,6.30
2019-05-19T23:53:34.382Z,4.00
2019-05-19T23:56:02.010Z,3.47
2019-05-19T23:58:29.695Z,2.43
